sensor_id;sensor_type;location;lat;lon;timestamp;pressure;altitude;pressure_sealevel;temperature;humidity
61524;BME280;47393;38.758;-9.164;2022-11-04T00:00:19;100967.78;;;17.26;100.00
61524;BME280;47393;38.758;-9.164;2022-11-04T00:02:19;100982.75;;;17.27;100.00
61524;BME280;47393;38.758;-9.164;2022-11-04T00:04:21;100968.91;;;17.23;100.00
61524;BME280;47393;38.758;-9.164;2022-11-04T00:06:22;100970.59;;;17.24;100.00
61524;BME280;47393;38.758;-9.164;2022-11-04T00:08:22;100978.88;;;17.21;100.00
61524;BME280;47393;38.758;-9.164;2022-11-04T00:10:23;100975.09;;;17.24;100.00
61524;BME280;47393;38.758;-9.164;2022-11-04T00:12:24;100965.59;;;17.21;100.00
61524;BME280;47393;38.758;-9.164;2022-11-04T00:14:24;100964.78;;;17.21;100.00
61524;BME280;47393;38.758;-9.164;2022-11-04T00:16:25;100961.19;;;17.12;100.00
61524;BME280;47393;38.758;-9.164;2022-11-04T00:18:44;100955.97;;;17.02;100.00
61524;BME280;47393;38.758;-9.164;2022-11-04T00:20:48;100952.09;;;16.97;100.00
61524;BME280;47393;38.758;-9.164;2022-11-04T00:23:07;100956.50;;;16.88;100.00
61524;BME280;47393;38.758;-9.164;2022-11-04T00:25:27;100955.75;;;16.95;100.00
61524;BME280;47393;38.758;-9.164;2022-11-04T00:27:46;100954.06;;;16.94;100.00
61524;BME280;47393;38.758;-9.164;2022-11-04T00:30:07;100962.44;;;17.00;100.00
61524;BME280;47393;38.758;-9.164;2022-11-04T00:32:08;100959.63;;;17.01;100.00
61524;BME280;47393;38.758;-9.164;2022-11-04T00:34:28;100958.78;;;17.01;100.00
61524;BME280;47393;38.758;-9.164;2022-11-04T00:36:28;100963.78;;;17.04;100.00
61524;BME280;47393;38.758;-9.164;2022-11-04T00:38:29;100960.97;;;17.05;100.00
61524;BME280;47393;38.758;-9.164;2022-11-04T00:40:30;100970.59;;;17.06;100.00
61524;BME280;47393;38.758;-9.164;2022-11-04T00:42:31;100966.28;;;17.05;100.00
61524;BME280;47393;38.758;-9.164;2022-11-04T00:44:31;100969.69;;;16.98;100.00
61524;BME280;47393;38.758;-9.164;2022-11-04T00:46:32;100973.72;;;17.02;100.00
61524;BME280;47393;38.758;-9.164;2022-11-04T00:48:33;100968.81;;;17.07;100.00
61524;BME280;47393;38.758;-9.164;2022-11-04T00:50:33;100967.81;;;17.08;100.00
61524;BME280;47393;38.758;-9.164;2022-11-04T00:52:34;100956.66;;;17.04;100.00
61524;BME280;47393;38.758;-9.164;2022-11-04T00:54:34;100954.66;;;17.06;100.00
61524;BME280;47393;38.758;-9.164;2022-11-04T00:56:38;100958.16;;;17.07;100.00
61524;BME280;47393;38.758;-9.164;2022-11-04T00:58:39;100962.19;;;17.11;100.00
61524;BME280;47393;38.758;-9.164;2022-11-04T01:00:39;100961.50;;;17.09;100.00
61524;BME280;47393;38.758;-9.164;2022-11-04T01:02:40;100957.47;;;17.05;100.00
61524;BME280;47393;38.758;-9.164;2022-11-04T01:04:40;100948.97;;;17.01;100.00
61524;BME280;47393;38.758;-9.164;2022-11-04T01:06:41;100956.25;;;16.99;100.00
61524;BME280;47393;38.758;-9.164;2022-11-04T01:08:42;100951.09;;;16.98;100.00
61524;BME280;47393;38.758;-9.164;2022-11-04T01:10:42;100951.41;;;16.94;100.00
61524;BME280;47393;38.758;-9.164;2022-11-04T01:12:43;100951.25;;;16.96;100.00
61524;BME280;47393;38.758;-9.164;2022-11-04T01:14:43;100947.84;;;17.04;100.00
61524;BME280;47393;38.758;-9.164;2022-11-04T01:16:44;100944.88;;;17.07;100.00
61524;BME280;47393;38.758;-9.164;2022-11-04T01:18:47;100948.81;;;17.03;100.00
61524;BME280;47393;38.758;-9.164;2022-11-04T01:20:48;100948.00;;;17.02;100.00
61524;BME280;47393;38.758;-9.164;2022-11-04T01:22:48;100963.88;;;16.94;100.00
61524;BME280;47393;38.758;-9.164;2022-11-04T01:24:49;100954.56;;;16.80;100.00
61524;BME280;47393;38.758;-9.164;2022-11-04T01:26:49;100959.78;;;16.72;100.00
61524;BME280;47393;38.758;-9.164;2022-11-04T01:28:50;100956.47;;;16.70;100.00
61524;BME280;47393;38.758;-9.164;2022-11-04T01:30:51;100957.59;;;16.67;100.00
61524;BME280;47393;38.758;-9.164;2022-11-04T01:32:52;100960.41;;;16.66;100.00
61524;BME280;47393;38.758;-9.164;2022-11-04T01:34:52;100971.47;;;16.61;100.00
61524;BME280;47393;38.758;-9.164;2022-11-04T01:36:53;100968.28;;;16.57;100.00
61524;BME280;47393;38.758;-9.164;2022-11-04T01:38:54;100967.50;;;16.47;100.00
61524;BME280;47393;38.758;-9.164;2022-11-04T01:40:54;100967.34;;;16.49;100.00
61524;BME280;47393;38.758;-9.164;2022-11-04T01:42:55;100959.16;;;16.42;100.00
61524;BME280;47393;38.758;-9.164;2022-11-04T01:44:56;100954.97;;;16.39;100.00
61524;BME280;47393;38.758;-9.164;2022-11-04T01:46:57;100950.41;;;16.32;100.00
61524;BME280;47393;38.758;-9.164;2022-11-04T01:49:40;100953.66;;;16.25;100.00
61524;BME280;47393;38.758;-9.164;2022-11-04T01:51:21;100964.16;;;16.17;100.00
61524;BME280;47393;38.758;-9.164;2022-11-04T01:53:23;100970.75;;;16.13;100.00
61524;BME280;47393;38.758;-9.164;2022-11-04T01:55:25;100971.91;;;16.11;100.00
61524;BME280;47393;38.758;-9.164;2022-11-04T01:57:32;100973.16;;;16.06;100.00
61524;BME280;47393;38.758;-9.164;2022-11-04T01:59:34;100966.31;;;16.04;100.00
61524;BME280;47393;38.758;-9.164;2022-11-04T02:01:36;100957.53;;;16.03;100.00
61524;BME280;47393;38.758;-9.164;2022-11-04T02:03:42;100948.19;;;15.99;100.00
61524;BME280;47393;38.758;-9.164;2022-11-04T02:05:46;100955.91;;;15.93;100.00
61524;BME280;47393;38.758;-9.164;2022-11-04T02:07:48;100944.47;;;15.92;100.00
61524;BME280;47393;38.758;-9.164;2022-11-04T02:09:49;100940.94;;;15.91;100.00
61524;BME280;47393;38.758;-9.164;2022-11-04T02:11:50;100942.91;;;15.89;100.00
61524;BME280;47393;38.758;-9.164;2022-11-04T02:14:09;100955.59;;;15.96;100.00
61524;BME280;47393;38.758;-9.164;2022-11-04T02:16:16;100961.34;;;15.91;100.00
61524;BME280;47393;38.758;-9.164;2022-11-04T02:18:32;100965.53;;;15.94;100.00
61524;BME280;47393;38.758;-9.164;2022-11-04T02:31:11;100970.84;;;15.74;100.00
61524;BME280;47393;38.758;-9.164;2022-11-04T02:33:21;100990.69;;;15.80;100.00
61524;BME280;47393;38.758;-9.164;2022-11-04T02:35:25;100988.75;;;15.72;100.00
61524;BME280;47393;38.758;-9.164;2022-11-04T02:37:32;100992.22;;;15.63;100.00
61524;BME280;47393;38.758;-9.164;2022-11-04T02:41:59;101000.66;;;15.09;100.00
61524;BME280;47393;38.758;-9.164;2022-11-04T02:48:33;100997.72;;;14.83;100.00
61524;BME280;47393;38.758;-9.164;2022-11-04T02:52:47;100999.28;;;14.54;100.00
61524;BME280;47393;38.758;-9.164;2022-11-04T02:55:04;101002.19;;;14.42;100.00
61524;BME280;47393;38.758;-9.164;2022-11-04T02:57:07;101008.66;;;14.28;100.00
61524;BME280;47393;38.758;-9.164;2022-11-04T02:59:21;101006.97;;;14.27;100.00
61524;BME280;47393;38.758;-9.164;2022-11-04T03:01:22;101010.31;;;14.19;100.00
61524;BME280;47393;38.758;-9.164;2022-11-04T03:03:50;101017.22;;;14.10;100.00
61524;BME280;47393;38.758;-9.164;2022-11-04T03:05:48;101014.81;;;13.97;100.00
61524;BME280;47393;38.758;-9.164;2022-11-04T03:07:50;101001.91;;;14.04;100.00
61524;BME280;47393;38.758;-9.164;2022-11-04T03:09:54;101000.47;;;14.00;100.00
61524;BME280;47393;38.758;-9.164;2022-11-04T03:12:01;101007.69;;;13.98;100.00
61524;BME280;47393;38.758;-9.164;2022-11-04T03:14:05;101006.13;;;13.95;100.00
61524;BME280;47393;38.758;-9.164;2022-11-04T03:16:11;101005.44;;;13.93;100.00
61524;BME280;47393;38.758;-9.164;2022-11-04T03:18:35;101000.03;;;13.95;100.00
61524;BME280;47393;38.758;-9.164;2022-11-04T03:20:38;100996.63;;;13.83;100.00
61524;BME280;47393;38.758;-9.164;2022-11-04T03:22:40;100996.03;;;13.79;100.00
61524;BME280;47393;38.758;-9.164;2022-11-04T03:24:41;100998.13;;;13.76;100.00
61524;BME280;47393;38.758;-9.164;2022-11-04T03:26:51;100999.75;;;13.67;100.00
61524;BME280;47393;38.758;-9.164;2022-11-04T03:29:55;100999.47;;;13.70;100.00
61524;BME280;47393;38.758;-9.164;2022-11-04T03:31:25;101002.81;;;13.72;100.00
61524;BME280;47393;38.758;-9.164;2022-11-04T03:33:32;101002.25;;;13.69;100.00
61524;BME280;47393;38.758;-9.164;2022-11-04T03:35:34;101006.69;;;13.68;100.00
61524;BME280;47393;38.758;-9.164;2022-11-04T03:37:34;101010.31;;;13.67;100.00
61524;BME280;47393;38.758;-9.164;2022-11-04T03:39:35;101001.66;;;13.65;100.00
61524;BME280;47393;38.758;-9.164;2022-11-04T03:41:43;101007.47;;;13.59;100.00
61524;BME280;47393;38.758;-9.164;2022-11-04T03:43:46;101012.75;;;13.59;100.00
61524;BME280;47393;38.758;-9.164;2022-11-04T03:45:47;101012.56;;;13.50;100.00
61524;BME280;47393;38.758;-9.164;2022-11-04T03:47:48;101016.28;;;13.48;100.00
61524;BME280;47393;38.758;-9.164;2022-11-04T03:49:50;101024.84;;;13.40;100.00
61524;BME280;47393;38.758;-9.164;2022-11-04T03:51:52;101015.88;;;13.31;100.00
61524;BME280;47393;38.758;-9.164;2022-11-04T03:53:53;101010.25;;;13.25;100.00
61524;BME280;47393;38.758;-9.164;2022-11-04T03:58:35;101013.75;;;13.25;100.00
61524;BME280;47393;38.758;-9.164;2022-11-04T04:00:48;101013.59;;;13.27;100.00
61524;BME280;47393;38.758;-9.164;2022-11-04T04:02:56;101010.72;;;13.30;100.00
61524;BME280;47393;38.758;-9.164;2022-11-04T04:04:59;101010.22;;;13.36;100.00
61524;BME280;47393;38.758;-9.164;2022-11-04T04:07:03;101009.50;;;13.34;100.00
61524;BME280;47393;38.758;-9.164;2022-11-04T04:09:07;101002.19;;;13.26;100.00
61524;BME280;47393;38.758;-9.164;2022-11-04T04:13:28;101000.19;;;13.19;100.00
61524;BME280;47393;38.758;-9.164;2022-11-04T04:15:34;101005.88;;;13.03;100.00
61524;BME280;47393;38.758;-9.164;2022-11-04T04:17:42;101007.59;;;12.92;100.00
61524;BME280;47393;38.758;-9.164;2022-11-04T04:19:50;101001.03;;;12.87;100.00
61524;BME280;47393;38.758;-9.164;2022-11-04T04:21:53;101006.88;;;12.90;100.00
61524;BME280;47393;38.758;-9.164;2022-11-04T04:23:55;101004.50;;;12.87;100.00
61524;BME280;47393;38.758;-9.164;2022-11-04T04:26:16;100996.22;;;12.80;100.00
61524;BME280;47393;38.758;-9.164;2022-11-04T04:28:36;101008.34;;;12.72;100.00
61524;BME280;47393;38.758;-9.164;2022-11-04T04:30:38;101014.25;;;12.64;100.00
61524;BME280;47393;38.758;-9.164;2022-11-04T04:32:40;101007.69;;;12.58;100.00
61524;BME280;47393;38.758;-9.164;2022-11-04T04:34:42;101016.28;;;12.60;100.00
61524;BME280;47393;38.758;-9.164;2022-11-04T04:36:44;101012.22;;;12.68;100.00
61524;BME280;47393;38.758;-9.164;2022-11-04T04:38:45;101015.44;;;12.71;100.00
61524;BME280;47393;38.758;-9.164;2022-11-04T04:43:36;101012.31;;;12.77;100.00
61524;BME280;47393;38.758;-9.164;2022-11-04T04:45:56;101007.97;;;12.76;100.00
61524;BME280;47393;38.758;-9.164;2022-11-04T04:47:56;101011.59;;;12.75;100.00
61524;BME280;47393;38.758;-9.164;2022-11-04T04:49:58;101024.69;;;12.77;100.00
61524;BME280;47393;38.758;-9.164;2022-11-04T04:52:00;101023.94;;;12.75;100.00
61524;BME280;47393;38.758;-9.164;2022-11-04T04:54:03;101025.06;;;12.72;100.00
61524;BME280;47393;38.758;-9.164;2022-11-04T04:56:04;101030.94;;;12.64;100.00
61524;BME280;47393;38.758;-9.164;2022-11-04T04:58:04;101035.13;;;12.56;100.00
61524;BME280;47393;38.758;-9.164;2022-11-04T05:00:06;101029.75;;;12.46;100.00
61524;BME280;47393;38.758;-9.164;2022-11-04T05:02:07;101034.31;;;12.33;100.00
61524;BME280;47393;38.758;-9.164;2022-11-04T05:04:08;101035.88;;;12.24;100.00
61524;BME280;47393;38.758;-9.164;2022-11-04T05:06:08;101031.41;;;12.13;100.00
61524;BME280;47393;38.758;-9.164;2022-11-04T05:08:09;101038.00;;;12.07;100.00
61524;BME280;47393;38.758;-9.164;2022-11-04T05:10:11;101029.97;;;11.98;100.00
61524;BME280;47393;38.758;-9.164;2022-11-04T05:12:11;101033.47;;;11.98;100.00
61524;BME280;47393;38.758;-9.164;2022-11-04T05:14:12;101038.44;;;11.90;100.00
61524;BME280;47393;38.758;-9.164;2022-11-04T05:16:12;101037.75;;;11.99;100.00
61524;BME280;47393;38.758;-9.164;2022-11-04T05:18:13;101037.06;;;12.08;100.00
61524;BME280;47393;38.758;-9.164;2022-11-04T05:20:13;101036.34;;;12.18;100.00
61524;BME280;47393;38.758;-9.164;2022-11-04T05:22:14;101036.13;;;12.21;100.00
61524;BME280;47393;38.758;-9.164;2022-11-04T05:24:15;101040.16;;;12.25;100.00
61524;BME280;47393;38.758;-9.164;2022-11-04T05:26:15;101043.66;;;12.25;100.00
61524;BME280;47393;38.758;-9.164;2022-11-04T05:28:16;101044.38;;;12.27;100.00
61524;BME280;47393;38.758;-9.164;2022-11-04T05:30:17;101039.97;;;12.28;100.00
61524;BME280;47393;38.758;-9.164;2022-11-04T05:32:17;101046.06;;;12.28;100.00
61524;BME280;47393;38.758;-9.164;2022-11-04T05:34:18;101046.44;;;12.35;100.00
61524;BME280;47393;38.758;-9.164;2022-11-04T05:36:19;101046.78;;;12.31;100.00
61524;BME280;47393;38.758;-9.164;2022-11-04T05:38:19;101048.56;;;12.30;100.00
61524;BME280;47393;38.758;-9.164;2022-11-04T05:40:22;101060.06;;;12.29;100.00
61524;BME280;47393;38.758;-9.164;2022-11-04T05:42:23;101061.06;;;12.28;100.00
61524;BME280;47393;38.758;-9.164;2022-11-04T05:44:24;101065.03;;;12.34;100.00
61524;BME280;47393;38.758;-9.164;2022-11-04T05:46:25;101058.53;;;12.26;100.00
61524;BME280;47393;38.758;-9.164;2022-11-04T05:48:26;101052.28;;;12.27;100.00
61524;BME280;47393;38.758;-9.164;2022-11-04T05:50:27;101058.44;;;12.28;100.00
61524;BME280;47393;38.758;-9.164;2022-11-04T05:52:28;101050.50;;;12.28;100.00
61524;BME280;47393;38.758;-9.164;2022-11-04T05:54:29;101058.06;;;12.21;100.00
61524;BME280;47393;38.758;-9.164;2022-11-04T05:56:29;101059.25;;;12.17;100.00
61524;BME280;47393;38.758;-9.164;2022-11-04T05:58:30;101059.38;;;12.16;100.00
61524;BME280;47393;38.758;-9.164;2022-11-04T06:00:30;101064.75;;;12.14;100.00
61524;BME280;47393;38.758;-9.164;2022-11-04T06:02:31;101069.28;;;12.12;100.00
61524;BME280;47393;38.758;-9.164;2022-11-04T06:04:32;101061.88;;;12.06;100.00
61524;BME280;47393;38.758;-9.164;2022-11-04T06:06:34;101062.72;;;12.06;100.00
61524;BME280;47393;38.758;-9.164;2022-11-04T06:08:35;101060.53;;;12.00;100.00
61524;BME280;47393;38.758;-9.164;2022-11-04T06:10:35;101071.56;;;11.94;100.00
61524;BME280;47393;38.758;-9.164;2022-11-04T06:12:36;101075.09;;;11.93;100.00
61524;BME280;47393;38.758;-9.164;2022-11-04T06:14:36;101074.00;;;11.84;100.00
61524;BME280;47393;38.758;-9.164;2022-11-04T06:16:37;101079.34;;;11.96;100.00
61524;BME280;47393;38.758;-9.164;2022-11-04T06:18:38;101080.28;;;11.94;100.00
61524;BME280;47393;38.758;-9.164;2022-11-04T06:20:38;101087.03;;;11.74;100.00
61524;BME280;47393;38.758;-9.164;2022-11-04T06:22:39;101085.78;;;11.56;100.00
61524;BME280;47393;38.758;-9.164;2022-11-04T06:24:39;101079.50;;;11.46;100.00
61524;BME280;47393;38.758;-9.164;2022-11-04T06:26:40;101086.69;;;11.43;100.00
61524;BME280;47393;38.758;-9.164;2022-11-04T06:28:41;101080.72;;;11.53;100.00
61524;BME280;47393;38.758;-9.164;2022-11-04T06:30:42;101092.91;;;11.42;100.00
61524;BME280;47393;38.758;-9.164;2022-11-04T06:32:42;101096.47;;;11.41;100.00
61524;BME280;47393;38.758;-9.164;2022-11-04T06:34:43;101089.75;;;11.37;100.00
61524;BME280;47393;38.758;-9.164;2022-11-04T06:36:47;101088.16;;;11.23;100.00
61524;BME280;47393;38.758;-9.164;2022-11-04T06:38:48;101085.78;;;11.07;100.00
61524;BME280;47393;38.758;-9.164;2022-11-04T06:40:49;101091.94;;;10.95;100.00
61524;BME280;47393;38.758;-9.164;2022-11-04T06:42:49;101094.78;;;10.92;100.00
61524;BME280;47393;38.758;-9.164;2022-11-04T06:44:50;101096.03;;;10.99;100.00
61524;BME280;47393;38.758;-9.164;2022-11-04T06:46:51;101097.50;;;11.03;100.00
61524;BME280;47393;38.758;-9.164;2022-11-04T06:48:52;101094.78;;;10.92;100.00
61524;BME280;47393;38.758;-9.164;2022-11-04T06:50:56;101089.53;;;10.79;100.00
61524;BME280;47393;38.758;-9.164;2022-11-04T06:52:56;101097.34;;;10.81;100.00
61524;BME280;47393;38.758;-9.164;2022-11-04T06:54:57;101105.13;;;10.82;100.00
61524;BME280;47393;38.758;-9.164;2022-11-04T06:56:58;101106.59;;;10.73;100.00
61524;BME280;47393;38.758;-9.164;2022-11-04T06:58:58;101103.22;;;10.71;100.00
61524;BME280;47393;38.758;-9.164;2022-11-04T07:00:59;101109.25;;;10.73;100.00
61524;BME280;47393;38.758;-9.164;2022-11-04T07:02:59;101109.44;;;10.83;100.00
61524;BME280;47393;38.758;-9.164;2022-11-04T07:05:00;101106.97;;;10.93;100.00
61524;BME280;47393;38.758;-9.164;2022-11-04T07:07:01;101102.75;;;11.03;100.00
61524;BME280;47393;38.758;-9.164;2022-11-04T07:09:02;101113.03;;;11.19;100.00
61524;BME280;47393;38.758;-9.164;2022-11-04T07:11:03;101122.59;;;11.45;100.00
61524;BME280;47393;38.758;-9.164;2022-11-04T07:13:03;101119.13;;;11.44;100.00
61524;BME280;47393;38.758;-9.164;2022-11-04T07:15:04;101122.72;;;11.43;100.00
61524;BME280;47393;38.758;-9.164;2022-11-04T07:17:05;101127.66;;;11.48;100.00
61524;BME280;47393;38.758;-9.164;2022-11-04T07:19:06;101131.78;;;11.63;100.00
61524;BME280;47393;38.758;-9.164;2022-11-04T07:21:06;101129.59;;;12.05;100.00
61524;BME280;47393;38.758;-9.164;2022-11-04T07:23:07;101139.84;;;12.33;100.00
61524;BME280;47393;38.758;-9.164;2022-11-04T07:25:07;101142.63;;;12.65;97.55
61524;BME280;47393;38.758;-9.164;2022-11-04T07:27:08;101149.34;;;12.92;95.90
61524;BME280;47393;38.758;-9.164;2022-11-04T07:29:09;101156.50;;;13.24;93.12
61524;BME280;47393;38.758;-9.164;2022-11-04T07:31:10;101157.81;;;13.41;91.40
61524;BME280;47393;38.758;-9.164;2022-11-04T07:33:11;101166.06;;;13.59;89.22
61524;BME280;47393;38.758;-9.164;2022-11-04T07:35:12;101160.22;;;13.76;88.49
61524;BME280;47393;38.758;-9.164;2022-11-04T07:37:13;101155.41;;;14.02;87.90
61524;BME280;47393;38.758;-9.164;2022-11-04T07:39:14;101152.28;;;14.61;87.20
61524;BME280;47393;38.758;-9.164;2022-11-04T07:41:15;101162.88;;;14.82;83.05
61524;BME280;47393;38.758;-9.164;2022-11-04T07:43:16;101164.81;;;15.20;80.76
61524;BME280;47393;38.758;-9.164;2022-11-04T07:45:17;101167.34;;;15.22;81.03
61524;BME280;47393;38.758;-9.164;2022-11-04T07:47:17;101173.44;;;15.13;81.11
61524;BME280;47393;38.758;-9.164;2022-11-04T07:49:18;101169.66;;;15.05;81.51
61524;BME280;47393;38.758;-9.164;2022-11-04T07:51:19;101180.47;;;15.33;80.36
61524;BME280;47393;38.758;-9.164;2022-11-04T07:53:20;101178.50;;;15.35;78.70
61524;BME280;47393;38.758;-9.164;2022-11-04T07:55:20;101179.09;;;15.39;79.24
61524;BME280;47393;38.758;-9.164;2022-11-04T07:57:21;101190.28;;;15.62;78.88
61524;BME280;47393;38.758;-9.164;2022-11-04T07:59:21;101191.94;;;16.41;75.36
61524;BME280;47393;38.758;-9.164;2022-11-04T08:01:22;101188.94;;;17.11;73.10
61524;BME280;47393;38.758;-9.164;2022-11-04T08:03:23;101193.81;;;17.44;70.17
61524;BME280;47393;38.758;-9.164;2022-11-04T08:05:24;101201.63;;;16.90;66.34
61524;BME280;47393;38.758;-9.164;2022-11-04T08:07:24;101205.16;;;16.81;65.97
61524;BME280;47393;38.758;-9.164;2022-11-04T08:09:25;101201.47;;;17.19;62.63
61524;BME280;47393;38.758;-9.164;2022-11-04T08:11:25;101198.66;;;17.03;62.46
61524;BME280;47393;38.758;-9.164;2022-11-04T08:13:26;101196.84;;;17.49;60.77
61524;BME280;47393;38.758;-9.164;2022-11-04T08:15:27;101204.72;;;17.87;59.70
61524;BME280;47393;38.758;-9.164;2022-11-04T08:17:27;101205.13;;;18.62;57.22
61524;BME280;47393;38.758;-9.164;2022-11-04T08:19:28;101206.69;;;18.73;54.83
61524;BME280;47393;38.758;-9.164;2022-11-04T08:21:29;101215.13;;;19.29;53.32
61524;BME280;47393;38.758;-9.164;2022-11-04T08:23:30;101213.16;;;19.31;52.56
61524;BME280;47393;38.758;-9.164;2022-11-04T08:25:31;101215.78;;;19.23;52.38
61524;BME280;47393;38.758;-9.164;2022-11-04T08:27:33;101219.84;;;19.01;52.38
61524;BME280;47393;38.758;-9.164;2022-11-04T08:29:36;101219.56;;;19.12;51.88
61524;BME280;47393;38.758;-9.164;2022-11-04T08:31:37;101207.16;;;19.38;51.21
61524;BME280;47393;38.758;-9.164;2022-11-04T08:33:38;101225.22;;;19.52;49.88
61524;BME280;47393;38.758;-9.164;2022-11-04T08:35:39;101225.25;;;19.77;50.04
61524;BME280;47393;38.758;-9.164;2022-11-04T08:37:39;101228.81;;;18.92;51.50
61524;BME280;47393;38.758;-9.164;2022-11-04T08:39:40;101222.88;;;19.06;50.26
61524;BME280;47393;38.758;-9.164;2022-11-04T08:41:41;101235.78;;;17.86;51.93
61524;BME280;47393;38.758;-9.164;2022-11-04T08:43:42;101231.31;;;17.87;53.66
61524;BME280;47393;38.758;-9.164;2022-11-04T08:45:44;101237.78;;;17.84;53.03
61524;BME280;47393;38.758;-9.164;2022-11-04T08:47:45;101239.88;;;17.62;53.24
61524;BME280;47393;38.758;-9.164;2022-11-04T08:49:45;101243.38;;;18.53;52.15
61524;BME280;47393;38.758;-9.164;2022-11-04T08:51:46;101250.75;;;19.54;50.40
61524;BME280;47393;38.758;-9.164;2022-11-04T08:53:47;101241.03;;;20.37;46.53
61524;BME280;47393;38.758;-9.164;2022-11-04T08:55:48;101255.66;;;20.83;46.12
61524;BME280;47393;38.758;-9.164;2022-11-04T08:57:49;101255.22;;;21.58;42.79
61524;BME280;47393;38.758;-9.164;2022-11-04T08:59:49;101257.44;;;22.48;41.11
61524;BME280;47393;38.758;-9.164;2022-11-04T09:01:50;101261.03;;;22.93;40.00
61524;BME280;47393;38.758;-9.164;2022-11-04T09:03:51;101256.41;;;23.17;39.88
61524;BME280;47393;38.758;-9.164;2022-11-04T09:05:52;101261.00;;;23.08;39.18
61524;BME280;47393;38.758;-9.164;2022-11-04T09:07:52;101255.66;;;21.70;40.49
61524;BME280;47393;38.758;-9.164;2022-11-04T09:09:53;101260.41;;;21.60;42.35
61524;BME280;47393;38.758;-9.164;2022-11-04T09:11:54;101272.41;;;22.19;40.55
61524;BME280;47393;38.758;-9.164;2022-11-04T09:13:57;101269.34;;;22.22;39.70
61524;BME280;47393;38.758;-9.164;2022-11-04T09:15:57;101278.59;;;23.10;38.27
61524;BME280;47393;38.758;-9.164;2022-11-04T09:17:58;101272.22;;;23.26;39.81
61524;BME280;47393;38.758;-9.164;2022-11-04T09:19:59;101278.16;;;23.58;37.72
61524;BME280;47393;38.758;-9.164;2022-11-04T09:21:59;101280.31;;;23.63;37.43
61524;BME280;47393;38.758;-9.164;2022-11-04T09:24:00;101275.91;;;23.77;36.23
61524;BME280;47393;38.758;-9.164;2022-11-04T09:26:05;101276.97;;;21.07;39.62
61524;BME280;47393;38.758;-9.164;2022-11-04T09:28:06;101270.88;;;20.90;40.34
61524;BME280;47393;38.758;-9.164;2022-11-04T09:30:07;101271.13;;;21.12;39.71
61524;BME280;47393;38.758;-9.164;2022-11-04T09:32:08;101263.41;;;21.65;39.86
61524;BME280;47393;38.758;-9.164;2022-11-04T09:34:09;101263.38;;;21.34;39.39
61524;BME280;47393;38.758;-9.164;2022-11-04T09:36:10;101259.22;;;20.34;41.48
61524;BME280;47393;38.758;-9.164;2022-11-04T09:38:11;101263.00;;;21.76;38.90
61524;BME280;47393;38.758;-9.164;2022-11-04T09:40:13;101265.78;;;22.53;38.30
61524;BME280;47393;38.758;-9.164;2022-11-04T09:44:34;101260.28;;;23.29;34.94
61524;BME280;47393;38.758;-9.164;2022-11-04T09:46:38;101263.66;;;22.63;36.14
61524;BME280;47393;38.758;-9.164;2022-11-04T09:48:41;101271.81;;;22.70;36.19
61524;BME280;47393;38.758;-9.164;2022-11-04T09:50:47;101268.88;;;22.94;35.61
61524;BME280;47393;38.758;-9.164;2022-11-04T09:52:52;101270.75;;;22.94;35.10
61524;BME280;47393;38.758;-9.164;2022-11-04T09:56:56;101277.28;;;23.06;35.25
61524;BME280;47393;38.758;-9.164;2022-11-04T09:59:00;101270.03;;;20.82;39.04
61524;BME280;47393;38.758;-9.164;2022-11-04T10:01:05;101271.81;;;22.08;35.99
61524;BME280;47393;38.758;-9.164;2022-11-04T10:03:25;101270.53;;;22.19;35.22
61524;BME280;47393;38.758;-9.164;2022-11-04T10:10:15;101269.16;;;22.70;34.91
61524;BME280;47393;38.758;-9.164;2022-11-04T10:14:37;101267.56;;;23.05;34.77
61524;BME280;47393;38.758;-9.164;2022-11-04T10:19:28;101270.59;;;22.72;34.14
61524;BME280;47393;38.758;-9.164;2022-11-04T10:26:50;101260.16;;;22.01;34.68
61524;BME280;47393;38.758;-9.164;2022-11-04T10:28:59;101268.50;;;21.43;36.76
61524;BME280;47393;38.758;-9.164;2022-11-04T10:31:14;101269.28;;;21.13;37.72
61524;BME280;47393;38.758;-9.164;2022-11-04T10:33:27;101271.50;;;21.40;38.36
61524;BME280;47393;38.758;-9.164;2022-11-04T10:35:38;101265.56;;;21.93;35.93
61524;BME280;47393;38.758;-9.164;2022-11-04T10:37:41;101269.59;;;21.89;35.42
61524;BME280;47393;38.758;-9.164;2022-11-04T10:39:45;101267.03;;;21.33;37.38
61524;BME280;47393;38.758;-9.164;2022-11-04T10:41:46;101273.72;;;22.46;35.50
61524;BME280;47393;38.758;-9.164;2022-11-04T10:43:46;101266.84;;;23.26;34.48
61524;BME280;47393;38.758;-9.164;2022-11-04T10:49:57;101272.22;;;25.41;31.22
61524;BME280;47393;38.758;-9.164;2022-11-04T10:52:02;101272.16;;;24.86;30.98
61524;BME280;47393;38.758;-9.164;2022-11-04T10:54:07;101263.78;;;24.24;30.71
61524;BME280;47393;38.758;-9.164;2022-11-04T10:56:15;101275.38;;;22.24;34.39
61524;BME280;47393;38.758;-9.164;2022-11-04T10:58:19;101271.66;;;23.31;33.23
61524;BME280;47393;38.758;-9.164;2022-11-04T11:00:31;101274.63;;;24.09;31.65
61524;BME280;47393;38.758;-9.164;2022-11-04T11:02:47;101269.19;;;23.66;32.05
61524;BME280;47393;38.758;-9.164;2022-11-04T11:04:48;101268.91;;;23.24;33.89
61524;BME280;47393;38.758;-9.164;2022-11-04T11:06:52;101268.25;;;24.39;31.68
61524;BME280;47393;38.758;-9.164;2022-11-04T11:09:10;101261.34;;;24.29;31.56
61524;BME280;47393;38.758;-9.164;2022-11-04T11:11:15;101276.78;;;24.21;31.08
61524;BME280;47393;38.758;-9.164;2022-11-04T11:13:26;101271.97;;;23.73;33.46
61524;BME280;47393;38.758;-9.164;2022-11-04T11:15:29;101272.25;;;23.11;33.66
61524;BME280;47393;38.758;-9.164;2022-11-04T11:22:36;101271.16;;;24.65;31.18
61524;BME280;47393;38.758;-9.164;2022-11-04T11:25:42;101264.31;;;23.91;32.42